Time;durP1;ratioP1;P1;durP2;ratioP2;P2;SDS_P1;SDS_P2;PMS_P1;PMS_P2;Temp;Humidity;BMP_temperature;BMP_pressure;BME280_temperature;BME280_humidity;BME280_pressure;Samples;Min_cycle;Max_cycle;Signal;HPM_P1;HPM_P2
2023/10/04 18:25:41;;;;;;;6.87;2.17;;;15.50;99.90;;;;;;4102810;23;20313;-70
2023/10/04 18:28:09;;;;;;;5.83;1.30;;;15.50;99.90;;;;;;5013992;28;20296;-69
2023/10/04 18:30:36;;;;;;;3.93;1.20;;;15.50;99.90;;;;;;5014842;28;20268;-69
2023/10/04 18:33:04;;;;;;;4.77;1.40;;;15.50;99.90;;;;;;5014416;28;20225;-69
2023/10/04 18:35:31;;;;;;;5.80;1.37;;;15.50;99.90;;;;;;5014733;28;20206;-75
2023/10/04 18:37:58;;;;;;;3.57;1.07;;;15.50;99.90;;;;;;5014409;28;20264;-75
2023/10/04 18:40:26;;;;;;;8.07;1.10;;;15.40;99.90;;;;;;5013881;28;20210;-75
2023/10/04 18:42:54;;;;;;;1.23;0.90;;;15.50;99.90;;;;;;5014330;28;20225;-74
2023/10/04 18:45:22;;;;;;;3.13;1.00;;;15.50;99.90;;;;;;5013910;28;20629;-74
2023/10/04 18:47:50;;;;;;;4.80;1.00;;;15.50;99.90;;;;;;5013756;28;20212;-69
2023/10/04 18:50:21;;;;;;;2.53;1.23;;;15.60;99.90;;;;;;5013689;28;20228;-73
2023/10/04 18:52:48;;;;;;;6.07;1.17;;;15.70;99.90;;;;;;5013989;28;20311;-69
2023/10/04 18:55:16;;;;;;;1.90;0.80;;;15.60;99.90;;;;;;5014165;28;20213;-69
2023/10/04 18:57:44;;;;;;;3.53;1.27;;;15.70;99.90;;;;;;5013684;28;20217;-70
2023/10/04 19:00:14;;;;;;;3.83;0.97;;;15.80;99.90;;;;;;5013741;28;20210;-69
2023/10/04 19:02:42;;;;;;;3.13;0.93;;;15.80;99.90;;;;;;5013389;28;20267;-69
2023/10/04 19:05:10;;;;;;;6.10;1.13;;;15.80;99.90;;;;;;5013807;28;20210;-71
2023/10/04 19:07:38;;;;;;;3.50;0.80;;;15.80;99.90;;;;;;5013625;28;20654;-70
2023/10/04 19:10:05;;;;;;;3.17;0.70;;;15.80;99.90;;;;;;5013427;28;20801;-69
2023/10/04 19:12:33;;;;;;;6.97;0.90;;;15.90;99.90;;;;;;5013341;28;20230;-71
2023/10/04 19:15:00;;;;;;;2.93;1.17;;;16.00;99.90;;;;;;5013286;28;20210;-70
2023/10/04 19:17:29;;;;;;;3.60;0.70;;;15.90;99.90;;;;;;5013209;28;20292;-69
2023/10/04 19:19:56;;;;;;;3.03;0.93;;;15.90;99.90;;;;;;5013570;28;20296;-73
2023/10/04 19:22:24;;;;;;;5.80;1.30;;;15.90;99.90;;;;;;5013560;28;20225;-74
2023/10/04 19:24:51;;;;;;;1.77;0.90;;;15.80;99.90;;;;;;5013134;28;20260;-72
2023/10/04 19:27:18;;;;;;;4.60;1.17;;;15.80;99.90;;;;;;5013178;28;20286;-69
2023/10/04 19:29:45;;;;;;;4.17;1.07;;;15.80;99.90;;;;;;5013298;28;20328;-75
2023/10/04 19:32:12;;;;;;;1.97;0.80;;;15.70;99.90;;;;;;5012923;28;20317;-70
2023/10/04 19:34:40;;;;;;;3.93;0.90;;;15.70;99.90;;;;;;5012955;28;20296;-73
2023/10/04 19:37:08;;;;;;;3.03;1.03;;;15.60;99.90;;;;;;5013049;28;20294;-73
2023/10/04 19:39:34;;;;;;;3.93;0.80;;;15.60;99.90;;;;;;5012936;28;20684;-69
2023/10/04 19:42:01;;;;;;;3.60;1.00;;;15.40;99.90;;;;;;5012705;28;20704;-72
2023/10/04 19:44:30;;;;;;;3.67;0.90;;;15.40;99.90;;;;;;5013393;28;20264;-70
2023/10/04 19:46:57;;;;;;;3.33;0.77;;;15.40;99.90;;;;;;5012769;28;20320;-74
2023/10/04 19:49:24;;;;;;;3.03;1.20;;;15.30;99.90;;;;;;5013096;28;20328;-70
2023/10/04 19:51:52;;;;;;;2.97;1.23;;;15.20;99.90;;;;;;5012961;28;20284;-70
2023/10/04 19:54:19;;;;;;;3.53;1.40;;;15.10;99.90;;;;;;5012844;28;20279;-72
2023/10/04 19:56:47;;;;;;;4.57;1.27;;;15.00;99.90;;;;;;5012637;28;20202;-73
2023/10/04 19:59:14;;;;;;;3.33;0.97;;;14.90;99.90;;;;;;5012761;28;20205;-72
2023/10/04 20:01:42;;;;;;;3.20;1.07;;;14.90;99.90;;;;;;5012527;28;20637;-76
2023/10/04 20:04:11;;;;;;;4.53;0.93;;;14.90;99.90;;;;;;5012794;28;20209;-75
2023/10/04 20:06:38;;;;;;;2.83;1.00;;;14.90;99.90;;;;;;5012744;28;20621;-74
2023/10/04 20:09:11;;;;;;;3.70;1.43;;;14.80;99.90;;;;;;5012891;28;20237;-72
2023/10/04 20:11:38;;;;;;;2.47;1.80;;;14.70;99.90;;;;;;5012951;28;20209;-70
2023/10/04 20:14:05;;;;;;;3.53;0.97;;;14.70;99.90;;;;;;5012649;28;20312;-72
2023/10/04 20:16:32;;;;;;;4.17;1.00;;;14.70;99.90;;;;;;5012897;28;20291;-68
2023/10/04 20:19:00;;;;;;;3.30;1.00;;;14.70;99.90;;;;;;5012782;28;20214;-68
2023/10/04 20:21:27;;;;;;;3.67;1.10;;;14.60;99.90;;;;;;5012847;28;20206;-72
2023/10/04 20:23:54;;;;;;;2.90;0.83;;;14.60;99.90;;;;;;5013095;28;20264;-68
2023/10/04 20:26:23;;;;;;;1.53;0.83;;;14.50;99.90;;;;;;5012699;28;20300;-69
2023/10/04 20:28:51;;;;;;;4.03;0.73;;;14.50;99.90;;;;;;5012588;28;20237;-69
2023/10/04 20:31:19;;;;;;;1.67;0.80;;;14.50;99.90;;;;;;5012617;28;20209;-69
2023/10/04 20:33:46;;;;;;;5.47;1.10;;;14.50;99.90;;;;;;5012554;28;20689;-71
2023/10/04 20:36:15;;;;;;;1.53;0.90;;;14.50;99.90;;;;;;5012385;28;20202;-70
2023/10/04 20:38:42;;;;;;;2.70;0.90;;;14.50;99.90;;;;;;5012693;28;20220;-74
2023/10/04 20:41:08;;;;;;;1.93;0.60;;;14.40;99.90;;;;;;5012620;28;20602;-70
2023/10/04 20:43:37;;;;;;;3.17;1.20;;;14.50;99.90;;;;;;5012381;28;20308;-70
2023/10/04 20:46:06;;;;;;;2.50;0.90;;;14.50;99.90;;;;;;5012556;28;20289;-71
2023/10/04 20:48:32;;;;;;;2.20;0.70;;;14.40;99.90;;;;;;5012445;28;20237;-70
2023/10/04 20:51:00;;;;;;;6.60;0.80;;;14.40;99.90;;;;;;5012339;28;20645;-69
2023/10/04 20:53:29;;;;;;;2.37;0.80;;;14.40;99.90;;;;;;5012325;28;20972;-70
2023/10/04 20:55:56;;;;;;;4.20;0.93;;;14.40;99.90;;;;;;5012330;28;20205;-71
2023/10/04 20:58:24;;;;;;;2.50;0.97;;;14.40;99.90;;;;;;5012374;28;20205;-70
2023/10/04 21:00:52;;;;;;;2.20;0.90;;;14.40;99.90;;;;;;5012159;28;20271;-69
2023/10/04 21:03:19;;;;;;;4.83;1.00;;;14.50;99.90;;;;;;5012115;28;20266;-70
2023/10/04 21:05:46;;;;;;;4.57;0.80;;;14.40;99.90;;;;;;5012060;28;20745;-70
2023/10/04 21:08:14;;;;;;;2.60;0.93;;;14.50;99.90;;;;;;5012560;28;20212;-70
2023/10/04 21:10:41;;;;;;;4.93;0.73;;;14.50;99.90;;;;;;5011947;28;20236;-70
2023/10/04 21:13:08;;;;;;;1.00;0.50;;;14.50;99.90;;;;;;5012692;28;20229;-69
2023/10/04 21:15:35;;;;;;;4.60;1.27;;;14.50;99.90;;;;;;5015699;28;20248;-69
2023/10/04 21:18:04;;;;;;;2.27;1.33;;;14.60;99.90;;;;;;5015565;28;20268;-70
2023/10/04 21:20:31;;;;;;;4.77;1.03;;;14.60;99.90;;;;;;5015685;28;20236;-70
2023/10/04 21:22:57;;;;;;;4.13;0.67;;;14.50;99.90;;;;;;5015629;28;20706;-70
2023/10/04 21:25:26;;;;;;;4.50;0.80;;;14.50;99.90;;;;;;5015390;28;20272;-69
